Time;durP1;ratioP1;P1;durP2;ratioP2;P2;SDS_P1;SDS_P2;PMS_P1;PMS_P2;Temp;Humidity;BMP_temperature;BMP_pressure;BME280_temperature;BME280_humidity;BME280_pressure;Samples;Min_cycle;Max_cycle;Signal;HPM_P1;HPM_P2
2022/04/28 00:02:18;;;;;;;8.82;4.97;;;;;;;8.08;91.75;101857.75;5209636;28;20024;-77
2022/04/28 00:04:48;;;;;;;7.68;4.57;;;;;;;8.12;91.41;101854.25;5206835;28;20059;-77
2022/04/28 00:07:18;;;;;;;8.38;4.75;;;;;;;8.12;90.94;101860.34;5210726;28;20056;-77
2022/04/28 00:09:48;;;;;;;7.32;4.60;;;;;;;8.15;91.13;101860.31;5209146;28;20028;-77
2022/04/28 00:12:19;;;;;;;8.85;4.97;;;;;;;8.13;90.05;101862.06;5212075;28;20027;-77
2022/04/28 00:14:49;;;;;;;7.70;4.18;;;;;;;8.18;90.55;101860.31;5206640;28;20064;-77
2022/04/28 00:17:20;;;;;;;8.35;4.78;;;;;;;8.20;90.32;101863.78;5200577;28;20079;-77
2022/04/28 00:19:50;;;;;;;8.85;4.45;;;;;;;8.27;88.80;101860.28;5202109;28;20029;-77
2022/04/28 00:22:21;;;;;;;9.50;4.88;;;;;;;7.98;89.36;101863.84;5204397;28;20028;-77
2022/04/28 00:24:52;;;;;;;9.30;4.88;;;;;;;7.70;92.74;101859.66;5228754;22;20120;-77
2022/04/28 00:27:22;;;;;;;8.20;4.63;;;;;;;7.85;91.48;101870.84;5201187;28;20100;-80
2022/04/28 00:29:53;;;;;;;8.02;4.70;;;;;;;7.99;90.42;101866.47;5202533;28;20494;-77
2022/04/28 00:32:23;;;;;;;10.32;4.80;;;;;;;7.70;91.61;101864.84;5200664;28;20085;-78
2022/04/28 00:34:53;;;;;;;8.65;5.13;;;;;;;7.27;96.33;101872.75;5201337;28;20095;-77
2022/04/28 00:37:24;;;;;;;7.40;4.80;;;;;;;7.48;94.05;101879.66;5201225;28;20578;-77
2022/04/28 00:39:54;;;;;;;9.18;4.90;;;;;;;7.43;94.18;101876.19;5201097;28;20064;-77
2022/04/28 00:42:24;;;;;;;8.20;5.28;;;;;;;7.12;96.06;101877.97;5191879;28;20034;-77
2022/04/28 00:44:55;;;;;;;8.55;5.10;;;;;;;7.04;98.31;101885.78;5184676;28;20065;-77
2022/04/28 00:50:38;;;;;;;10.77;5.20;;;;;;;6.99;96.87;101884.03;5200062;28;20431;-77
2022/04/28 00:53:09;;;;;;;8.23;5.18;;;;;;;7.22;96.15;101875.34;5200400;28;20091;-77
2022/04/28 00:55:41;;;;;;;8.98;4.70;;;;;;;7.47;92.02;101880.50;5200689;28;20040;-76
2022/04/28 00:58:12;;;;;;;7.32;3.97;;;;;;;7.47;90.31;101885.72;5182543;28;20116;-80
2022/04/28 01:00:42;;;;;;;7.38;4.30;;;;;;;7.37;90.83;101889.19;5183152;28;20112;-77
2022/04/28 01:03:13;;;;;;;8.27;4.13;;;;;;;7.45;88.90;101891.78;5200191;28;20386;-77
2022/04/28 01:05:43;;;;;;;9.73;4.47;;;;;;;7.36;89.68;101892.66;5200126;28;20158;-77
2022/04/28 01:08:13;;;;;;;6.90;4.65;;;;;;;7.10;88.98;101890.13;5184186;28;20029;-76
2022/04/28 01:10:43;;;;;;;6.03;4.40;;;;;;;7.02;91.80;101900.50;5200219;28;20036;-76
2022/04/28 01:13:14;;;;;;;7.32;4.63;;;;;;;6.83;90.97;101897.88;5183259;28;20037;-77
2022/04/28 01:15:46;;;;;;;5.90;4.45;;;;;;;6.73;92.40;101893.56;5200514;28;20112;-76
2022/04/28 01:18:17;;;;;;;9.82;4.97;;;;;;;6.55;95.17;101903.91;5201095;28;20642;-77
2022/04/28 01:20:48;;;;;;;9.82;5.38;;;;;;;6.52;96.37;101894.41;5201885;28;20032;-77
2022/04/28 01:23:18;;;;;;;6.47;4.45;;;;;;;6.63;95.88;101903.06;5202012;28;20092;-78
2022/04/28 01:25:49;;;;;;;8.45;4.72;;;;;;;6.82;93.34;101909.16;5183759;28;20036;-77
2022/04/28 01:28:19;;;;;;;7.43;4.60;;;;;;;6.78;91.18;101907.41;5202494;28;20017;-78
2022/04/28 01:30:49;;;;;;;8.00;4.68;;;;;;;6.64;93.13;101911.72;5187706;28;20635;-77
2022/04/28 01:33:19;;;;;;;8.38;4.80;;;;;;;6.55;93.71;101909.97;5205693;28;20072;-77
2022/04/28 01:35:50;;;;;;;8.50;5.05;;;;;;;6.44;95.05;101910.81;5205254;28;20112;-78
2022/04/28 01:38:20;;;;;;;7.15;4.82;;;;;;;6.30;96.96;101916.00;5208483;28;20470;-77
2022/04/28 01:40:51;;;;;;;8.80;5.32;;;;;;;6.17;97.96;101916.81;5187479;28;20030;-77
2022/04/28 01:43:21;;;;;;;11.10;5.03;;;;;;;6.18;98.48;101909.88;5205472;28;20630;-77
2022/04/28 01:45:51;;;;;;;9.77;5.40;;;;;;;6.16;100.00;101914.19;5205412;28;20439;-78
2022/04/28 01:48:22;;;;;;;11.30;5.50;;;;;;;5.98;100.00;101908.94;5204766;28;20022;-77
2022/04/28 01:56:30;;;;;;;9.82;5.13;;;;;;;5.74;100.00;101913.97;5201275;28;20395;-77
2022/04/28 01:59:00;;;;;;;10.10;4.93;;;;;;;6.10;100.00;101909.00;5204457;28;20033;-77
2022/04/28 02:01:30;;;;;;;8.45;4.63;;;;;;;6.14;97.52;101918.50;5204233;28;20029;-77
2022/04/28 02:04:01;;;;;;;9.30;4.70;;;;;;;6.36;96.86;101915.13;5186670;28;20510;-77
2022/04/28 02:06:31;;;;;;;8.23;4.25;;;;;;;6.41;95.33;101910.81;5202285;28;20083;-77
2022/04/28 02:09:02;;;;;;;9.85;4.80;;;;;;;6.17;95.67;101921.09;5204599;28;20536;-78
2022/04/28 02:11:32;;;;;;;6.35;4.28;;;;;;;6.27;94.41;101920.28;5186823;28;20025;-78
2022/04/28 02:14:02;;;;;;;7.22;4.43;;;;;;;6.22;93.59;101919.41;5204724;28;20071;-77
2022/04/28 02:16:33;;;;;;;6.60;4.18;;;;;;;6.02;95.17;101918.44;5186516;28;20052;-77
2022/04/28 02:19:03;;;;;;;6.70;4.20;;;;;;;6.15;95.03;101923.72;5204424;28;20500;-77
2022/04/28 02:21:33;;;;;;;8.32;4.60;;;;;;;5.98;93.57;101927.09;5203908;28;20033;-77
2022/04/28 02:24:04;;;;;;;10.27;5.13;;;;;;;5.98;96.69;101934.88;5204128;28;20025;-77
2022/04/28 02:26:34;;;;;;;10.50;5.22;;;;;;;5.91;96.16;101928.78;5203812;28;20514;-77
2022/04/28 02:29:05;;;;;;;9.00;4.70;;;;;;;5.77;97.27;101930.41;5186115;28;20434;-78
2022/04/28 02:31:35;;;;;;;9.10;5.45;;;;;;;5.56;100.00;101925.09;5202546;28;20053;-77
2022/04/28 02:34:05;;;;;;;12.10;5.90;;;;;;;5.52;100.00;101927.66;5185848;28;20030;-76
2022/04/28 02:36:36;;;;;;;12.60;5.63;;;;;;;5.29;100.00;101929.22;5204317;28;20544;-77
2022/04/28 02:39:06;;;;;;;9.93;5.50;;;;;;;5.27;100.00;101930.06;5204032;28;20104;-78
2022/04/28 02:41:37;;;;;;;12.05;5.93;;;;;;;5.22;100.00;101927.47;5203640;28;20075;-77
2022/04/28 02:44:07;;;;;;;10.35;5.40;;;;;;;5.37;100.00;101930.16;5186517;28;20064;-78
2022/04/28 02:46:45;;;;;;;8.85;5.25;;;;;;;5.48;100.00;101925.91;5186676;28;20091;-77
2022/04/28 02:49:16;;;;;;;11.32;5.57;;;;;;;5.70;97.35;101920.88;5186482;28;20036;-77
2022/04/28 02:51:46;;;;;;;11.13;4.90;;;;;;;5.78;95.14;101928.69;5203836;28;20026;-78
2022/04/28 02:54:17;;;;;;;9.98;4.78;;;;;;;5.68;97.95;101932.97;5203906;28;20028;-77
2022/04/28 02:56:47;;;;;;;9.77;5.10;;;;;;;5.61;98.67;101928.56;5204248;28;20067;-78
2022/04/28 02:59:17;;;;;;;9.40;4.95;;;;;;;5.85;95.92;101930.47;5204420;28;20029;-77
2022/04/28 03:01:47;;;;;;;8.98;4.55;;;;;;;5.59;95.68;101929.44;5203908;28;20031;-77
2022/04/28 03:04:18;;;;;;;6.40;4.68;;;;;;;5.71;93.47;101930.38;5185784;28;20025;-77
2022/04/28 03:12:26;;;;;;;7.50;5.25;;;;;;;5.70;95.94;101926.06;5203632;28;20664;-78
2022/04/28 03:14:56;;;;;;;9.23;4.85;;;;;;;5.68;92.84;101937.25;5203082;28;20033;-77
2022/04/28 03:17:26;;;;;;;8.40;4.65;;;;;;;5.77;93.48;101935.59;5204056;28;20025;-77
2022/04/28 03:19:56;;;;;;;9.98;5.40;;;;;;;5.44;95.09;101932.78;5203701;28;20108;-77
2022/04/28 03:22:27;;;;;;;7.68;4.97;;;;;;;5.28;97.84;101932.69;5203693;28;20430;-77
2022/04/28 03:24:57;;;;;;;6.97;4.90;;;;;;;5.38;98.16;101940.53;5203137;28;20059;-78
2022/04/28 03:27:28;;;;;;;7.38;4.88;;;;;;;5.30;99.08;101935.28;5199750;28;20036;-78
2022/04/28 03:29:58;;;;;;;7.72;4.57;;;;;;;5.27;97.43;101940.44;5185800;28;20148;-78
2022/04/28 03:32:28;;;;;;;6.50;4.10;;;;;;;5.27;98.10;101935.25;5203743;28;20063;-78
2022/04/28 03:34:58;;;;;;;8.18;4.75;;;;;;;4.99;100.00;101939.34;5203584;28;20033;-77
2022/04/28 03:37:29;;;;;;;10.02;5.65;;;;;;;4.85;100.00;101943.56;5203734;28;20022;-77
2022/04/28 03:39:59;;;;;;;10.15;5.35;;;;;;;4.72;100.00;101948.56;5203970;28;20032;-77
2022/04/28 03:42:29;;;;;;;12.90;5.82;;;;;;;4.65;100.00;101946.78;5203088;28;20479;-77
2022/04/28 03:44:59;;;;;;;8.52;5.80;;;;;;;4.65;100.00;101937.28;5203216;28;20390;-77
2022/04/28 03:47:33;;;;;;;10.38;6.25;;;;;;;4.94;100.00;101942.78;5203128;28;20124;-78
2022/04/28 03:50:05;;;;;;;10.38;5.85;;;;;;;4.93;100.00;101939.28;5202229;28;20017;-77
2022/04/28 03:52:36;;;;;;;8.15;5.00;;;;;;;4.69;100.00;101948.56;5199587;28;20029;-78
2022/04/28 03:55:06;;;;;;;9.90;4.63;;;;;;;4.48;100.00;101953.50;5184775;28;20026;-78
2022/04/28 03:57:37;;;;;;;8.70;5.38;;;;;;;4.57;100.00;101951.00;5202685;28;20052;-77
2022/04/28 04:00:07;;;;;;;10.48;5.53;;;;;;;4.63;100.00;101951.94;5202424;28;20052;-77
2022/04/28 04:02:38;;;;;;;8.88;5.35;;;;;;;4.62;100.00;101951.94;5202398;28;20034;-78
2022/04/28 04:05:09;;;;;;;8.77;5.43;;;;;;;4.55;100.00;101948.41;5199981;28;20036;-78
2022/04/28 04:07:41;;;;;;;10.07;5.47;;;;;;;4.58;100.00;101944.97;5184876;28;20641;-78
2022/04/28 04:10:11;;;;;;;12.60;6.18;;;;;;;4.76;100.00;101955.50;5202726;28;20029;-78
2022/04/28 04:12:42;;;;;;;9.30;5.53;;;;;;;4.85;100.00;101955.63;5202623;28;20545;-78
2022/04/28 04:15:12;;;;;;;7.53;5.25;;;;;;;4.94;100.00;101955.72;5185024;28;20037;-78
2022/04/28 04:17:45;;;;;;;7.60;5.15;;;;;;;4.78;100.00;101956.44;5202401;28;20025;-77
2022/04/28 04:20:15;;;;;;;16.40;5.43;;;;;;;5.05;100.00;101952.38;5202163;28;20057;-78
2022/04/28 04:22:46;;;;;;;9.98;5.00;;;;;;;5.22;99.52;101950.78;5198737;28;20029;-78
2022/04/28 04:25:16;;;;;;;9.48;5.50;;;;;;;5.28;98.50;101945.63;5203716;28;20105;-78
2022/04/28 04:27:47;;;;;;;9.57;5.18;;;;;;;5.62;95.85;101961.47;5186590;28;20993;-78
2022/04/28 04:33:16;;;;;;;10.43;5.80;;;;;;;5.50;96.50;101968.25;5133132;28;20033;-78
2022/04/28 04:35:46;;;;;;;10.95;5.60;;;;;;;5.55;95.38;101964.00;5204284;28;20112;-78
2022/04/28 04:38:17;;;;;;;12.98;5.85;;;;;;;5.70;96.36;101961.47;5186131;28;20025;-78
2022/04/28 04:40:47;;;;;;;11.38;6.22;;;;;;;5.80;97.01;101965.91;5204341;28;20112;-78
2022/04/28 04:43:17;;;;;;;10.48;5.93;;;;;;;5.75;95.11;101967.59;5188142;28;20108;-78
2022/04/28 04:45:48;;;;;;;14.50;6.93;;;;;;;5.82;96.17;101966.78;5187123;28;20033;-78
2022/04/28 04:48:18;;;;;;;13.88;7.00;;;;;;;5.52;97.84;101969.13;5187852;28;20032;-78
2022/04/28 04:50:49;;;;;;;10.32;5.97;;;;;;;5.93;98.44;101967.72;5204749;28;20025;-77
2022/04/28 04:53:19;;;;;;;11.45;5.88;;;;;;;6.42;95.22;101973.13;5187290;28;20032;-78
2022/04/28 04:55:49;;;;;;;12.00;6.38;;;;;;;6.62;95.18;101973.19;5187070;28;20499;-78
2022/04/28 04:58:20;;;;;;;11.35;6.10;;;;;;;7.59;89.67;101975.88;5205194;28;20502;-78
2022/04/28 05:00:51;;;;;;;9.55;5.28;;;;;;;8.68;83.51;101972.94;5204974;28;20089;-78
2022/04/28 05:03:21;;;;;;;6.60;4.47;;;;;;;10.09;79.56;101971.75;5190940;28;20078;-78
2022/04/28 05:05:53;;;;;;;6.95;4.10;;;;;;;10.94;74.24;101967.13;5190744;28;20025;-78
2022/04/28 05:08:23;;;;;;;6.20;4.45;;;;;;;10.90;74.72;101975.91;5209673;28;20036;-79
2022/04/28 05:10:54;;;;;;;5.97;4.10;;;;;;;10.89;73.03;101979.41;5208862;28;20516;-79
2022/04/28 05:13:24;;;;;;;7.30;4.57;;;;;;;12.82;69.88;101968.81;5209375;28;20782;-79
2022/04/28 05:15:54;;;;;;;6.17;4.30;;;;;;;13.37;67.08;101974.53;5209852;28;20033;-79
2022/04/28 05:18:27;;;;;;;8.63;4.97;;;;;;;14.59;65.52;101974.69;5209503;28;20272;-78
2022/04/28 05:20:58;;;;;;;8.00;5.78;;;;;;;15.95;62.70;101978.09;5208031;28;20022;-79
2022/04/28 05:23:28;;;;;;;16.20;8.73;;;;;;;15.49;63.20;101972.69;5191802;28;20509;-79
2022/04/28 05:25:59;;;;;;;14.23;7.87;;;;;;;14.68;64.32;101982.31;5209143;28;20043;-79
2022/04/28 05:28:29;;;;;;;11.02;5.53;;;;;;;15.04;61.19;101982.91;5209822;28;20288;-79
2022/04/28 05:30:59;;;;;;;10.48;5.15;;;;;;;15.60;62.35;101974.06;5208084;28;20028;-79
2022/04/28 05:33:30;;;;;;;7.63;4.90;;;;;;;15.71;61.83;101974.53;5209422;28;20033;-79
2022/04/28 05:36:00;;;;;;;9.23;4.70;;;;;;;17.86;57.76;101964.34;5191110;28;20314;-79
2022/04/28 05:38:32;;;;;;;11.57;5.00;;;;;;;19.41;54.85;101961.44;5207539;28;20033;-79
2022/04/28 05:41:04;;;;;;;7.85;4.57;;;;;;;19.81;53.61;101964.63;5189766;28;20029;-79
2022/04/28 05:46:25;;;;;;;10.07;4.63;;;;;;;19.29;53.65;101970.84;5208175;28;20089;-79
2022/04/28 05:48:56;;;;;;;7.43;4.28;;;;;;;19.54;54.03;101974.00;5207150;28;20033;-79
2022/04/28 05:51:26;;;;;;;12.15;4.70;;;;;;;20.05;52.55;101974.03;5207499;28;20021;-79
2022/04/28 05:53:57;;;;;;;9.43;4.40;;;;;;;17.52;57.60;101985.22;5207451;28;20080;-79
2022/04/28 05:56:28;;;;;;;9.35;3.95;;;;;;;18.13;57.11;101987.81;5205597;28;21190;-79
2022/04/28 05:58:58;;;;;;;11.02;4.50;;;;;;;14.81;62.46;101999.47;5186948;28;20075;-78
2022/04/28 06:01:29;;;;;;;10.77;4.70;;;;;;;14.24;63.69;102003.78;5184041;28;20033;-78
2022/04/28 06:03:59;;;;;;;11.50;4.70;;;;;;;13.98;66.28;102003.59;5188039;28;20037;-79
2022/04/28 06:06:30;;;;;;;9.15;4.25;;;;;;;12.62;69.69;102007.72;5204312;28;20401;-78
2022/04/28 06:09:00;;;;;;;10.93;4.40;;;;;;;12.37;71.05;102006.53;5206319;28;20033;-78
2022/04/28 06:11:31;;;;;;;10.98;4.60;;;;;;;11.95;72.25;102007.31;5206077;28;20065;-78
2022/04/28 06:14:01;;;;;;;11.80;5.10;;;;;;;11.81;75.54;102005.84;5204916;28;20053;-78
2022/04/28 06:16:32;;;;;;;7.47;4.55;;;;;;;10.86;77.61;102016.09;5205987;28;20422;-79
2022/04/28 06:19:02;;;;;;;12.07;5.18;;;;;;;12.88;73.35;102007.16;5205924;28;20048;-78
2022/04/28 06:21:32;;;;;;;10.65;3.95;;;;;;;14.79;66.09;101998.66;5188767;28;20053;-79
2022/04/28 06:26:43;;;;;;;8.07;3.22;;;;;;;16.74;59.63;102000.72;5201546;28;20320;-77
2022/04/28 06:29:13;;;;;;;8.47;3.10;;;;;;;17.95;56.69;101988.63;5205221;28;20121;-77
2022/04/28 06:31:43;;;;;;;13.15;3.13;;;;;;;18.08;55.23;101999.53;5204721;28;20286;-77
2022/04/28 06:34:14;;;;;;;8.87;3.17;;;;;;;18.61;55.24;101992.72;5206419;28;20510;-77
2022/04/28 06:36:44;;;;;;;7.95;3.00;;;;;;;19.51;54.21;101994.53;5187311;28;20352;-76
2022/04/28 06:39:14;;;;;;;8.63;3.03;;;;;;;20.08;53.13;101987.16;5185241;28;20032;-77
2022/04/28 06:41:45;;;;;;;10.05;3.47;;;;;;;21.39;50.30;101983.38;5195054;28;20570;-77
2022/04/28 06:44:15;;;;;;;9.27;3.57;;;;;;;21.15;51.00;101990.06;5169429;28;20053;-77
2022/04/28 06:46:45;;;;;;;9.43;3.73;;;;;;;18.89;53.32;101999.31;5192234;28;20280;-76
2022/04/28 06:49:16;;;;;;;8.25;3.17;;;;;;;19.30;53.61;101996.41;5179714;28;20339;-77
2022/04/28 06:51:46;;;;;;;9.17;3.30;;;;;;;19.40;54.22;102003.00;5171806;28;20099;-77
2022/04/28 06:54:17;;;;;;;9.07;3.45;;;;;;;21.27;49.96;101989.38;5195003;28;20280;-77
2022/04/28 06:56:47;;;;;;;14.75;3.97;;;;;;;21.81;48.78;101991.53;5195360;28;20484;-78
2022/04/28 06:59:17;;;;;;;9.15;3.42;;;;;;;22.23;48.85;101989.78;5204347;28;20033;-78
2022/04/28 07:01:48;;;;;;;8.60;3.40;;;;;;;22.75;47.33;101989.16;5200384;28;20116;-76
2022/04/28 07:04:18;;;;;;;10.25;3.30;;;;;;;21.69;49.10;101992.25;5198511;28;20083;-76
2022/04/28 07:06:48;;;;;;;12.98;3.47;;;;;;;20.89;50.76;101999.50;5199905;28;20029;-77
2022/04/28 07:09:19;;;;;;;8.32;3.28;;;;;;;22.71;47.30;101987.63;5207641;28;20097;-77
2022/04/28 07:11:49;;;;;;;7.93;2.92;;;;;;;24.32;46.49;101991.00;5203511;28;20076;-78
2022/04/28 07:14:19;;;;;;;10.70;3.00;;;;;;;22.81;46.44;101999.44;5197227;28;20045;-75
2022/04/28 07:16:50;;;;;;;8.00;2.90;;;;;;;22.60;47.66;101999.09;5201240;28;20284;-77
2022/04/28 07:19:20;;;;;;;9.37;3.10;;;;;;;24.00;46.73;101991.50;5175560;28;20030;-77
2022/04/28 07:21:51;;;;;;;7.38;2.85;;;;;;;24.24;45.52;101995.16;5194947;28;20316;-77
2022/04/28 07:24:21;;;;;;;9.60;3.13;;;;;;;24.73;44.73;101991.59;5196803;28;20305;-77
2022/04/28 07:26:51;;;;;;;9.95;3.15;;;;;;;23.74;45.93;101998.56;5178852;28;20088;-77
2022/04/28 07:29:22;;;;;;;9.90;3.37;;;;;;;24.12;45.24;101994.19;5196393;28;20072;-78
2022/04/28 07:31:52;;;;;;;12.45;3.17;;;;;;;22.73;46.83;102003.53;5180680;28;20279;-77
2022/04/28 07:34:22;;;;;;;9.53;3.10;;;;;;;22.44;48.12;102003.66;5196572;28;20039;-78
2022/04/28 07:36:53;;;;;;;7.57;2.67;;;;;;;23.07;47.19;101995.97;5176719;28;20618;-77
2022/04/28 07:39:23;;;;;;;8.83;3.13;;;;;;;21.60;48.78;102008.72;5172251;28;20030;-77
2022/04/28 07:41:53;;;;;;;9.93;3.27;;;;;;;23.14;46.51;101999.97;5203198;28;20303;-76
2022/04/28 07:44:24;;;;;;;9.13;3.05;;;;;;;23.44;46.52;102003.31;5195568;28;20307;-77
2022/04/28 07:46:56;;;;;;;9.20;3.05;;;;;;;22.53;47.29;102011.06;5200621;28;20128;-77
2022/04/28 07:49:26;;;;;;;7.15;2.90;;;;;;;23.32;46.70;102005.91;5175011;28;20026;-77
2022/04/28 07:51:57;;;;;;;11.60;2.90;;;;;;;24.09;45.58;101997.09;5182591;28;20063;-77
2022/04/28 07:54:27;;;;;;;8.23;2.90;;;;;;;24.25;45.28;102003.06;5188105;28;20033;-77
2022/04/28 07:56:57;;;;;;;8.80;2.90;;;;;;;24.92;45.15;102008.03;5191109;28;20442;-77
2022/04/28 07:59:27;;;;;;;6.97;2.90;;;;;;;24.74;45.13;101999.53;5194969;28;20025;-78
2022/04/28 08:01:58;;;;;;;8.88;2.45;;;;;;;24.38;44.90;102006.59;5201056;28;21064;-78
2022/04/28 08:04:28;;;;;;;8.37;2.67;;;;;;;25.70;43.29;102002.19;5168545;28;20136;-77
2022/04/28 08:06:59;;;;;;;6.85;2.60;;;;;;;26.59;42.62;101993.41;5191962;28;20319;-78
2022/04/28 08:09:30;;;;;;;7.75;2.78;;;;;;;24.14;44.03;102002.97;5193786;28;20048;-75
2022/04/28 08:12:00;;;;;;;6.55;2.80;;;;;;;23.31;46.57;102004.19;5194478;28;20491;-77
2022/04/28 08:14:32;;;;;;;8.50;2.70;;;;;;;21.31;48.48;102014.88;5187907;28;20040;-78
2022/04/28 08:17:03;;;;;;;7.10;2.50;;;;;;;24.62;44.40;101999.56;5197359;28;20041;-78
2022/04/28 08:19:34;;;;;;;9.77;2.70;;;;;;;24.20;44.90;102007.03;5185427;28;20037;-78
2022/04/28 08:22:05;;;;;;;8.15;2.50;;;;;;;25.05;43.63;102003.53;5161659;28;20030;-77
2022/04/28 08:24:35;;;;;;;8.57;2.67;;;;;;;23.90;45.27;102001.13;5183162;28;20053;-77
2022/04/28 08:27:06;;;;;;;5.63;2.30;;;;;;;24.79;44.80;102007.25;5175984;28;20215;-77
2022/04/28 08:29:36;;;;;;;10.90;2.55;;;;;;;25.06;43.57;102008.78;5185426;28;20034;-77
2022/04/28 08:32:07;;;;;;;9.43;2.90;;;;;;;23.94;44.11;102008.81;5181809;28;20053;-77
2022/04/28 08:34:37;;;;;;;7.78;2.67;;;;;;;23.58;45.96;102018.41;5193342;28;20041;-77
2022/04/28 08:37:08;;;;;;;7.00;2.80;;;;;;;23.31;45.13;102022.88;5197179;28;20087;-78
2022/04/28 08:39:38;;;;;;;9.68;2.80;;;;;;;26.05;43.25;102006.63;5198465;28;20034;-77
2022/04/28 08:42:12;;;;;;;9.33;2.47;;;;;;;24.32;43.26;102020.41;5197113;28;20029;-78
2022/04/28 08:44:44;;;;;;;6.90;2.92;;;;;;;24.32;44.18;102011.50;5196428;28;20379;-76
2022/04/28 08:47:15;;;;;;;7.78;2.83;;;;;;;23.42;46.03;102020.38;5198499;28;20558;-76
2022/04/28 08:49:49;;;;;;;8.25;3.33;;;;;;;22.55;46.63;102027.81;5190591;28;20073;-78
2022/04/28 08:52:19;;;;;;;7.53;2.67;;;;;;;24.96;43.95;102018.41;5198610;28;20038;-75
2022/04/28 08:54:53;;;;;;;6.00;2.92;;;;;;;22.06;47.44;102023.75;5202560;28;20047;-74
2022/04/28 08:57:24;;;;;;;9.27;2.90;;;;;;;21.17;49.41;102022.75;5197232;28;20054;-76
2022/04/28 08:59:55;;;;;;;7.15;3.00;;;;;;;21.67;48.61;102023.41;5196670;28;20687;-74
2022/04/28 09:02:29;;;;;;;6.50;2.85;;;;;;;21.59;47.36;102023.00;5210771;28;20594;-77
2022/04/28 09:05:02;;;;;;;8.70;2.92;;;;;;;23.03;46.74;102014.94;5196453;28;20302;-75
2022/04/28 09:07:36;;;;;;;10.95;2.75;;;;;;;23.72;46.05;102011.19;5191982;28;20037;-81
2022/04/28 09:10:26;;;;;;;8.07;3.08;;;;;;;23.40;46.88;102020.47;5177929;28;20033;-77
2022/04/28 09:15:56;;;;;;;10.27;3.88;;;;;;;19.85;51.09;102032.56;5198127;28;20045;-77
2022/04/28 09:18:26;;;;;;;7.95;3.35;;;;;;;20.09;51.39;102033.16;5196196;28;20030;-77
2022/04/28 09:20:56;;;;;;;10.23;4.20;;;;;;;19.83;51.47;102029.13;5180387;28;20123;-78
2022/04/28 09:23:27;;;;;;;14.02;4.55;;;;;;;20.23;52.34;102031.50;5194837;28;20283;-77
2022/04/28 09:25:58;;;;;;;10.98;4.00;;;;;;;19.90;52.55;102029.66;5186257;28;20042;-77
2022/04/28 09:28:29;;;;;;;6.95;3.95;;;;;;;17.75;55.62;102045.94;5193706;28;20021;-77
2022/04/28 09:31:00;;;;;;;13.18;4.18;;;;;;;18.02;56.81;102044.78;5189842;28;20050;-78
2022/04/28 09:33:32;;;;;;;7.68;3.78;;;;;;;18.50;55.37;102038.22;5197727;28;20041;-83
2022/04/28 09:36:04;;;;;;;9.77;4.13;;;;;;;18.70;54.90;102037.34;5202950;28;20096;-80
2022/04/28 09:38:34;;;;;;;12.38;4.07;;;;;;;18.64;55.47;102034.94;5198630;28;20025;-79
2022/04/28 09:44:00;;;;;;;8.75;4.20;;;;;;;18.43;56.72;102027.97;5211400;28;20100;-80
2022/04/28 09:46:31;;;;;;;10.75;4.32;;;;;;;18.68;58.14;102025.97;5175258;28;20694;-79
2022/04/28 09:49:02;;;;;;;12.93;4.63;;;;;;;18.97;57.88;102028.97;5191030;28;20098;-82
2022/04/28 09:51:35;;;;;;;12.02;4.70;;;;;;;19.04;55.30;102025.97;5205765;28;20143;-82
2022/04/28 09:54:08;;;;;;;10.02;5.07;;;;;;;18.79;55.32;102032.47;5190691;28;20022;-82
2022/04/28 09:56:41;;;;;;;9.45;4.90;;;;;;;18.42;55.55;102026.25;5200364;28;20068;-81
2022/04/28 09:59:13;;;;;;;11.82;4.57;;;;;;;18.02;57.49;102015.69;5162403;28;20038;-79
2022/04/28 10:01:44;;;;;;;14.05;4.90;;;;;;;17.05;56.48;102023.22;5179749;28;20105;-79
2022/04/28 10:04:14;;;;;;;10.85;4.75;;;;;;;16.83;58.06;102030.25;5200615;28;20556;-80
2022/04/28 10:06:45;;;;;;;8.52;4.38;;;;;;;17.61;57.34;102027.13;5198851;28;20095;-79
2022/04/28 10:09:17;;;;;;;13.60;5.05;;;;;;;18.18;57.16;102019.38;5187881;28;20115;-82
2022/04/28 10:11:50;;;;;;;12.15;4.72;;;;;;;18.12;58.22;102012.56;5198685;28;20038;-81
2022/04/28 10:14:21;;;;;;;12.60;5.22;;;;;;;18.14;57.10;102010.72;5179135;28;20040;-79
2022/04/28 10:16:52;;;;;;;11.65;4.75;;;;;;;17.65;57.11;102020.81;5191196;28;20021;-79
2022/04/28 10:19:28;;;;;;;10.35;4.88;;;;;;;18.09;58.14;102018.00;5194543;28;20029;-81
2022/04/28 10:22:04;;;;;;;10.55;4.78;;;;;;;17.80;57.35;102018.38;5172982;28;20045;-83
2022/04/28 10:33:21;;;;;;;;;;;;;;;17.01;60.56;102019.00;5202205;28;20081;-81
2022/04/28 10:35:53;;;;;;;11.85;5.30;;;;;;;17.62;58.30;102015.66;5172734;28;20196;-82
2022/04/28 10:38:30;;;;;;;11.15;5.05;;;;;;;17.45;58.21;102015.50;5164067;28;20853;-83
2022/04/28 10:41:00;;;;;;;11.27;5.15;;;;;;;17.57;59.72;102014.97;5169401;28;20026;-82
2022/04/28 10:43:34;;;;;;;9.90;5.82;;;;;;;17.73;57.54;102018.69;5169832;28;20118;-78
2022/04/28 10:46:04;;;;;;;9.63;5.32;;;;;;;17.36;56.60;102010.56;5200036;28;20026;-83
2022/04/28 10:48:40;;;;;;;13.73;6.03;;;;;;;17.41;58.17;102008.56;5175263;28;20041;-78
2022/04/28 10:51:15;;;;;;;9.88;5.45;;;;;;;18.01;60.62;102000.72;5173807;28;20026;-78
2022/04/28 10:54:23;;;;;;;9.70;5.65;;;;;;;17.98;58.24;102006.16;5175848;28;20041;-78
2022/04/28 10:57:00;;;;;;;14.05;5.85;;;;;;;17.28;58.46;102008.19;5195023;28;20499;-83
2022/04/28 10:59:36;;;;;;;10.88;6.43;;;;;;;17.53;58.90;102000.16;5174269;28;20042;-80
2022/04/28 11:02:15;;;;;;;12.85;5.47;;;;;;;17.89;62.18;102003.91;5191451;28;20032;-79
2022/04/28 11:05:12;;;;;;;10.13;6.38;;;;;;;17.50;60.57;102000.28;5178526;28;20038;-80
2022/04/28 11:07:46;;;;;;;15.88;6.25;;;;;;;17.82;58.96;101999.81;5189384;28;20040;-78
2022/04/28 11:10:16;;;;;;;11.52;5.78;;;;;;;18.13;57.87;101998.41;5205858;28;20041;-80
2022/04/28 11:12:47;;;;;;;12.73;6.20;;;;;;;17.38;56.97;102000.78;5181789;28;20033;-81
2022/04/28 11:15:18;;;;;;;12.95;6.22;;;;;;;17.11;57.98;102004.50;5196299;28;20060;-79
2022/04/28 11:17:48;;;;;;;12.55;6.55;;;;;;;16.87;57.82;102000.16;5182690;28;20383;-79
2022/04/28 11:20:21;;;;;;;12.82;6.38;;;;;;;16.80;58.92;101999.53;5190551;28;20114;-80
2022/04/28 11:22:52;;;;;;;12.68;5.45;;;;;;;17.34;59.43;102002.69;5189234;28;20037;-78
2022/04/28 11:25:23;;;;;;;10.68;5.65;;;;;;;17.74;58.74;101997.47;5200887;28;20669;-74
2022/04/28 11:27:56;;;;;;;11.15;5.72;;;;;;;17.80;57.48;101989.28;5200069;28;20495;-74
2022/04/28 11:30:27;;;;;;;12.40;5.63;;;;;;;17.50;57.16;101998.47;5210182;28;20093;-73
2022/04/28 11:32:58;;;;;;;11.25;5.95;;;;;;;17.59;58.38;101997.25;5192406;28;20072;-77
2022/04/28 11:35:40;;;;;;;12.23;6.60;;;;;;;17.44;57.97;101990.81;5195649;28;20045;-77
2022/04/28 11:38:11;;;;;;;15.68;6.70;;;;;;;17.01;59.89;101987.28;5180159;28;20030;-78
2022/04/28 11:40:44;;;;;;;11.57;7.00;;;;;;;16.63;59.00;101989.69;5197976;28;20463;-78
2022/04/28 11:43:15;;;;;;;15.50;7.05;;;;;;;15.89;60.45;101992.34;5175635;28;20100;-78
2022/04/28 11:45:46;;;;;;;13.60;6.75;;;;;;;16.38;59.51;101983.59;5178765;28;20616;-77
2022/04/28 11:48:16;;;;;;;13.98;6.80;;;;;;;16.45;59.75;101985.09;5194903;28;20057;-78
2022/04/28 11:50:47;;;;;;;16.38;6.88;;;;;;;16.33;59.88;101986.38;5185888;28;20037;-77
2022/04/28 11:53:18;;;;;;;13.25;6.35;;;;;;;16.27;58.88;101981.34;5197996;28;20037;-78
2022/04/28 11:55:50;;;;;;;12.52;5.80;;;;;;;16.57;59.30;101979.38;5194071;28;20029;-77
2022/04/28 11:58:21;;;;;;;13.30;6.10;;;;;;;16.67;57.92;101981.59;5194965;28;20186;-77
2022/04/28 12:00:51;;;;;;;11.40;5.95;;;;;;;16.89;58.46;101977.19;5193575;28;20041;-77
2022/04/28 12:03:26;;;;;;;11.30;5.72;;;;;;;17.03;59.32;101981.03;5194970;28;20409;-78
2022/04/28 12:05:56;;;;;;;12.85;6.10;;;;;;;17.32;59.60;101977.22;5204074;28;20046;-82
2022/04/28 12:08:27;;;;;;;12.63;5.65;;;;;;;17.01;56.77;101976.72;5172034;28;20053;-77
2022/04/28 12:19:27;;;;;;;11.13;5.63;;;;;;;16.90;58.88;101978.91;5194040;28;20076;-78
2022/04/28 12:22:02;;;;;;;11.70;5.65;;;;;;;17.07;59.46;101969.41;5187989;28;20053;-78
2022/04/28 12:27:08;;;;;;;11.20;5.60;;;;;;;16.94;58.68;101969.97;5163161;28;20318;-77
2022/04/28 12:29:55;;;;;;;13.00;5.45;;;;;;;17.03;60.14;101969.59;5166743;28;20572;-77
2022/04/28 12:32:25;;;;;;;13.00;5.60;;;;;;;17.24;56.74;101964.31;5161673;28;20046;-77